CheckWX is a tool to help pilots better visualize weather data.  It is not intended as a substitute for an official pre-flight weather briefing.

23:51:31 UTC

LLBG TAF
Ben Gurion International Airport
Tel Aviv, Israel
TAF LLBG 222324Z 2300/2324 VRB04KT CAVOK TEMPO 2300/2307 20010KT 7000 TSRA FEW060CB BKN100 BECMG 2307/2309 29008KT 9999 FEW035 PROB40 2309/2315 5000 +TSRA FEW040CB BKN100 BECMG 2315/2317 VRB04KT PROB30 2317/2324 18008KT 7000 TSRA FEW040CB BKN100 TX29/2310Z TN19/2304Z

Oct-23@
00:00 UTC

Oct-23 @ 00:00 UTC

Oct-23@
07:00 UTC

Oct-23 @ 07:00 UTC

TAF LLBG 222324Z 2300/2324 VRB04KT CAVOK
Wind
  • Variable at 4 KTS
Conditions
No significant weather
Cloud Levels
  • No significant clouds

Oct-23@
00:00 UTC

Oct-23 @ 00:00 UTC

Oct-23@
07:00 UTC

Oct-23 @ 07:00 UTC

TEMPO 2300/2307 20010KT 7000 TSRA FEW060CB BKN100

Temporary

Temporary Changes expected for less than half the time period

Wind
  • 200° at 10 KTS
Conditions
Thunderstorm, Rain
Cloud Levels
  • Few at 6,000' AGL
  • Broken at 10,000' AGL

Oct-23@
07:00 UTC

Oct-23 @ 07:00 UTC

Oct-23@
15:00 UTC

Oct-23 @ 15:00 UTC

BECMG 2307/2309 29008KT 9999 FEW035

Becoming

Becoming Conditions expected by Wed, Oct 23, 2019 @ 09:00 UTC

Wind
  • 290° at 8 KTS
Conditions
No significant weather
Cloud Levels
  • Few at 3,500' AGL

Oct-23@
09:00 UTC

Oct-23 @ 09:00 UTC

Oct-23@
15:00 UTC

Oct-23 @ 15:00 UTC

PROB40 2309/2315 5000 +TSRA FEW040CB BKN100

Probable - 40% Likelihood

Probable - 40% Likelihood during this time.

Conditions
Heavy Thunderstorm, Heavy Rain
Cloud Levels
  • Few at 4,000' AGL
  • Broken at 10,000' AGL

Oct-23@
15:00 UTC

Oct-23 @ 15:00 UTC

Oct-24@
00:00 UTC

Oct-24 @ 00:00 UTC

BECMG 2315/2317 VRB04KT

Becoming

Becoming Conditions expected by Wed, Oct 23, 2019 @ 17:00 UTC

Wind
  • Variable at 4 KTS
Conditions
No significant weather
Cloud Levels
  • Few at 3,500' AGL

Oct-23@
17:00 UTC

Oct-23 @ 17:00 UTC

Oct-24@
00:00 UTC

Oct-24 @ 00:00 UTC

PROB30 2317/2324 18008KT 7000 TSRA FEW040CB BKN100 TX29/2310Z TN19/2304Z

Probable - 30% Likelihood

Probable - 30% Likelihood during this time.

Wind
  • 180° at 8 KTS
Conditions
Thunderstorm, Rain
Cloud Levels
  • Few at 4,000' AGL
  • Broken at 10,000' AGL